Time;durP1;ratioP1;P1;durP2;ratioP2;P2;SDS_P1;SDS_P2;PMS_P1;PMS_P2;Temp;Humidity;BMP_temperature;BMP_pressure;BME280_temperature;BME280_humidity;BME280_pressure;Samples;Min_cycle;Max_cycle;Signal;HPM_P1;HPM_P2
2023/11/06 00:01:33;;;;;;;1.45;0.75;;;;;;;10.47;58.63;98044.91;10517856;28;20048;-63
2023/11/06 00:06:35;;;;;;;1.25;0.73;;;;;;;10.44;58.31;98042.56;10518323;28;20052;-63
2023/11/06 00:11:38;;;;;;;2.75;0.80;;;;;;;10.31;58.69;98039.41;10517790;28;20048;-64
2023/11/06 00:16:40;;;;;;;2.67;1.52;;;;;;;10.31;58.83;98037.63;10517156;28;20055;-63
2023/11/06 00:21:43;;;;;;;1.35;0.95;;;;;;;10.18;59.13;98039.66;10499510;28;20044;-64
2023/11/06 00:26:45;;;;;;;3.45;1.10;;;;;;;10.12;59.43;98042.78;10517684;28;20044;-63
2023/11/06 00:31:47;;;;;;;1.20;0.90;;;;;;;10.17;59.44;98042.41;10516559;28;20142;-63
2023/11/06 00:36:49;;;;;;;0.75;0.50;;;;;;;10.16;59.46;98048.56;10517483;28;20062;-63
2023/11/06 00:41:51;;;;;;;2.88;1.10;;;;;;;10.05;59.68;98078.25;10517362;28;20097;-63
2023/11/06 00:46:54;;;;;;;1.20;0.70;;;;;;;10.11;59.38;98069.06;10517026;28;20147;-64
2023/11/06 00:51:56;;;;;;;1.08;0.80;;;;;;;10.15;59.53;98079.09;10498204;28;20055;-63
2023/11/06 00:56:58;;;;;;;3.42;1.25;;;;;;;10.12;59.78;98089.81;10498671;28;20044;-63
2023/11/06 01:02:00;;;;;;;1.83;0.80;;;;;;;10.29;59.39;98098.78;10514165;28;20054;-64
2023/11/06 01:07:02;;;;;;;1.92;0.95;;;;;;;10.39;59.21;98091.81;10498535;28;20040;-64
2023/11/06 01:12:04;;;;;;;1.75;1.15;;;;;;;10.49;58.84;98097.88;10496443;28;20438;-64
2023/11/06 01:17:08;;;;;;;3.58;1.60;;;;;;;10.45;58.95;98109.56;10497226;28;20050;-64
2023/11/06 01:22:10;;;;;;;1.38;0.98;;;;;;;10.42;58.99;98117.66;10515573;28;20864;-63
2023/11/06 01:27:12;;;;;;;4.53;1.05;;;;;;;10.45;59.02;98110.38;10498311;28;20130;-63
2023/11/06 01:32:14;;;;;;;2.03;0.55;;;;;;;10.41;59.08;98116.00;10499378;28;20075;-63
2023/11/06 01:37:16;;;;;;;2.35;1.00;;;;;;;10.43;58.67;98119.31;10514769;28;20052;-62
2023/11/06 01:42:18;;;;;;;1.10;0.60;;;;;;;10.33;58.58;98111.47;10483214;28;20547;-63
2023/11/06 01:47:20;;;;;;;1.45;1.02;;;;;;;10.49;58.45;98129.22;10517018;28;20055;-63
2023/11/06 01:52:23;;;;;;;1.05;0.65;;;;;;;10.57;58.12;98118.09;10498104;28;20052;-63
2023/11/06 01:57:27;;;;;;;3.17;0.82;;;;;;;10.60;57.90;98133.53;10515627;28;20048;-63
2023/11/06 02:02:31;;;;;;;1.45;0.98;;;;;;;10.65;57.69;98128.69;10491714;28;20055;-63
2023/11/06 02:07:33;;;;;;;0.98;0.57;;;;;;;10.59;57.51;98147.53;10514353;28;20040;-63
2023/11/06 02:12:35;;;;;;;1.40;0.82;;;;;;;10.48;57.75;98159.75;10515359;28;20139;-63
2023/11/06 02:17:37;;;;;;;2.85;0.73;;;;;;;10.50;57.64;98155.22;10513717;28;20128;-63
2023/11/06 02:22:41;;;;;;;0.98;0.57;;;;;;;10.52;57.46;98168.19;10514730;28;20048;-64
2023/11/06 02:27:44;;;;;;;2.30;1.30;;;;;;;10.49;57.56;98181.50;10494012;28;20051;-63
2023/11/06 02:32:46;;;;;;;1.63;0.90;;;;;;;10.58;57.54;98190.34;10493894;28;20042;-63
2023/11/06 02:37:48;;;;;;;3.22;1.27;;;;;;;10.68;57.12;98192.03;10514834;28;20056;-64
2023/11/06 02:42:50;;;;;;;2.50;0.80;;;;;;;10.72;57.26;98196.03;10514289;28;20047;-63
2023/11/06 02:47:52;;;;;;;0.63;0.57;;;;;;;10.68;57.12;98201.66;10495270;28;20056;-63
2023/11/06 02:52:55;;;;;;;0.70;0.60;;;;;;;10.67;57.33;98194.75;10511951;28;20059;-63
2023/11/06 02:57:58;;;;;;;2.45;1.10;;;;;;;10.59;56.47;98198.03;10513532;28;20046;-63
2023/11/06 03:03:00;;;;;;;1.15;0.80;;;;;;;10.61;56.70;98211.81;10509935;28;20509;-63
2023/11/06 03:08:03;;;;;;;0.47;0.30;;;;;;;10.60;56.90;98214.56;10508623;28;20133;-63
2023/11/06 03:13:07;;;;;;;3.22;0.70;;;;;;;10.67;56.84;98228.72;10492777;28;20404;-63
2023/11/06 03:18:09;;;;;;;1.23;0.70;;;;;;;10.63;56.80;98225.56;10511823;28;20044;-63
2023/11/06 03:23:11;;;;;;;1.75;0.80;;;;;;;10.66;56.55;98246.22;10518988;28;20135;-63
2023/11/06 03:28:13;;;;;;;1.73;0.47;;;;;;;10.76;56.68;98251.47;10520470;28;20140;-63
2023/11/06 03:33:16;;;;;;;1.10;0.60;;;;;;;10.72;56.60;98261.38;10522404;28;20059;-63
2023/11/06 03:38:18;;;;;;;1.80;0.80;;;;;;;10.82;56.53;98256.19;10486307;28;20828;-63
2023/11/06 03:43:21;;;;;;;2.20;1.13;;;;;;;10.81;56.65;98270.19;10522422;28;20054;-64
2023/11/06 03:48:23;;;;;;;1.17;0.65;;;;;;;10.60;56.78;98267.66;10516032;28;20048;-63
2023/11/06 03:53:25;;;;;;;2.53;0.50;;;;;;;10.45;57.17;98274.19;10518713;28;20052;-63
2023/11/06 03:58:27;;;;;;;1.95;0.93;;;;;;;10.36;57.54;98288.88;10517090;28;20044;-63
2023/11/06 04:03:29;;;;;;;1.70;0.68;;;;;;;10.43;57.47;98297.03;10518765;28;20044;-63
2023/11/06 04:08:31;;;;;;;2.50;0.55;;;;;;;10.37;57.61;98298.38;10519163;28;20055;-63
2023/11/06 04:13:37;;;;;;;2.78;1.58;;;;;;;10.43;57.65;98307.47;10516299;28;20133;-63
2023/11/06 04:18:40;;;;;;;2.42;0.70;;;;;;;10.43;57.63;98310.09;10501395;28;20131;-63
2023/11/06 04:23:42;;;;;;;2.17;0.68;;;;;;;10.41;57.60;98317.25;10500146;28;20131;-63
2023/11/06 04:28:44;;;;;;;0.77;0.50;;;;;;;10.39;57.46;98332.22;10501253;28;20064;-63
2023/11/06 04:33:46;;;;;;;3.72;1.20;;;;;;;10.31;57.69;98325.03;10517657;28;20112;-63
2023/11/06 04:38:49;;;;;;;4.03;1.10;;;;;;;10.17;57.67;98329.75;10514624;28;20109;-63
2023/11/06 04:43:51;;;;;;;2.70;0.95;;;;;;;10.30;57.47;98344.25;10501680;28;20052;-64
2023/11/06 04:48:53;;;;;;;2.35;0.98;;;;;;;10.34;57.38;98347.44;10518518;28;20064;-64
2023/11/06 04:53:55;;;;;;;1.15;0.68;;;;;;;10.23;57.15;98348.38;10518584;28;20071;-64
2023/11/06 04:58:57;;;;;;;4.05;1.05;;;;;;;10.17;57.09;98348.03;10497982;28;20070;-64
2023/11/06 05:03:59;;;;;;;5.43;1.10;;;;;;;10.17;56.84;98354.09;10499385;28;20054;-64
2023/11/06 05:09:02;;;;;;;1.88;0.82;;;;;;;10.19;56.77;98369.63;10517174;28;20048;-63
2023/11/06 05:14:03;;;;;;;3.90;0.98;;;;;;;10.06;56.97;98376.81;10498079;28;20058;-63
2023/11/06 05:19:06;;;;;;;0.50;0.47;;;;;;;10.00;56.98;98387.75;10517785;28;20048;-64
2023/11/06 05:24:08;;;;;;;3.47;1.30;;;;;;;9.84;57.46;98392.56;10513938;28;20145;-64
2023/11/06 05:29:10;;;;;;;3.40;1.77;;;;;;;9.84;57.54;98393.41;10517142;28;20064;-64
2023/11/06 05:34:12;;;;;;;10.23;2.88;;;;;;;9.83;57.37;98394.34;10514566;28;20128;-63
2023/11/06 05:39:15;;;;;;;5.85;1.70;;;;;;;9.82;57.49;98415.38;10516610;28;20276;-63
2023/11/06 05:44:20;;;;;;;2.63;1.42;;;;;;;9.77;57.32;98420.16;10517433;28;20431;-63
2023/11/06 05:49:22;;;;;;;6.88;1.70;;;;;;;9.81;57.64;98429.41;10514081;28;20040;-64
2023/11/06 05:54:24;;;;;;;1.60;0.90;;;;;;;9.81;57.54;98434.63;10514355;28;20058;-64
2023/11/06 05:59:26;;;;;;;1.40;0.80;;;;;;;9.79;57.72;98455.59;10496154;28;20126;-63
2023/11/06 06:04:30;;;;;;;5.18;0.90;;;;;;;9.72;57.79;98451.84;10515011;28;20048;-64
2023/11/06 06:09:33;;;;;;;12.27;2.10;;;;;;;9.75;57.65;98462.03;10514485;28;20071;-63
2023/11/06 06:14:35;;;;;;;2.33;1.05;;;;;;;9.75;57.65;98462.03;10513670;28;20529;-63
2023/11/06 06:19:38;;;;;;;10.93;2.05;;;;;;;9.72;57.69;98466.66;10512365;28;20055;-64
2023/11/06 06:24:40;;;;;;;2.50;1.20;;;;;;;9.67;57.79;98471.44;10515292;28;20047;-65
2023/11/06 06:29:44;;;;;;;1.65;0.68;;;;;;;9.72;57.52;98487.56;10513497;28;20564;-64
2023/11/06 06:34:46;;;;;;;4.90;1.23;;;;;;;9.70;57.45;98494.66;10513242;28;20693;-64
2023/11/06 06:39:48;;;;;;;3.80;1.08;;;;;;;9.64;57.47;98506.41;10513008;28;20036;-64
2023/11/06 06:44:50;;;;;;;4.70;1.20;;;;;;;9.55;57.56;98521.00;10508124;28;20088;-64
2023/11/06 06:49:54;;;;;;;3.72;1.00;;;;;;;9.55;57.61;98523.59;10509947;28;20109;-65
2023/11/06 06:54:57;;;;;;;2.15;1.05;;;;;;;9.59;57.29;98529.41;10511617;28;20134;-64
2023/11/06 06:59:58;;;;;;;3.30;1.63;;;;;;;9.64;57.45;98556.84;10512638;28;20043;-64
2023/11/06 07:05:00;;;;;;;1.25;0.82;;;;;;;9.64;57.50;98559.44;10508847;28;20129;-64
2023/11/06 07:10:03;;;;;;;1.70;0.80;;;;;;;9.78;57.34;98568.00;10514187;28;20123;-64
2023/11/06 07:15:06;;;;;;;3.15;0.80;;;;;;;9.84;57.56;98577.97;10511554;28;20555;-64
2023/11/06 07:20:09;;;;;;;3.00;1.05;;;;;;;9.81;57.23;98581.63;10511668;28;20052;-64
2023/11/06 07:25:11;;;;;;;1.38;0.88;;;;;;;9.82;57.48;98593.75;10512854;28;20048;-64
2023/11/06 07:30:13;;;;;;;3.42;1.02;;;;;;;9.86;57.33;98600.41;10514628;28;20131;-64
2023/11/06 07:35:15;;;;;;;5.72;1.35;;;;;;;9.91;57.05;98620.94;10491119;28;20185;-64
2023/11/06 07:40:17;;;;;;;2.60;1.02;;;;;;;10.07;56.74;98621.41;10520569;28;20032;-64
2023/11/06 07:45:19;;;;;;;3.20;1.35;;;;;;;10.17;56.43;98627.56;10505563;28;20174;-64
2023/11/06 07:50:23;;;;;;;2.88;0.95;;;;;;;10.43;56.17;98631.56;10511505;28;20147;-64
2023/11/06 07:55:25;;;;;;;4.60;1.30;;;;;;;10.62;55.41;98636.16;10465601;28;20070;-64
2023/11/06 08:00:27;;;;;;;5.35;1.88;;;;;;;10.84;55.43;98638.69;10505222;28;20047;-64
2023/11/06 08:05:47;;;;;;;3.10;1.30;;;;;;;11.04;54.98;98654.47;10505550;28;20052;-65
2023/11/06 08:10:49;;;;;;;3.45;1.10;;;;;;;11.06;54.96;98657.78;10496223;28;20504;-64
2023/11/06 08:15:51;;;;;;;3.95;1.45;;;;;;;11.13;54.83;98651.06;10517941;28;20036;-65
2023/11/06 08:20:54;;;;;;;7.82;1.55;;;;;;;11.39;54.24;98658.56;10515987;28;20608;-65
2023/11/06 08:25:56;;;;;;;5.80;1.17;;;;;;;11.39;54.22;98663.81;10518718;28;20123;-66
2023/11/06 08:30:58;;;;;;;3.88;1.48;;;;;;;11.49;54.01;98678.63;10495463;28;20500;-66
2023/11/06 08:36:00;;;;;;;3.03;1.48;;;;;;;11.60;53.66;98680.34;10517947;28;20079;-65
2023/11/06 08:41:07;;;;;;;5.57;2.38;;;;;;;11.82;53.38;98688.06;10515971;28;20043;-72
2023/11/06 08:46:09;;;;;;;2.35;1.13;;;;;;;12.02;53.16;98689.84;10517297;28;20468;-72
2023/11/06 08:51:11;;;;;;;6.93;2.10;;;;;;;11.96;52.90;98700.84;10515939;28;20040;-72
2023/11/06 08:56:23;;;;;;;5.63;1.25;;;;;;;12.02;52.50;98710.78;10509436;28;20101;-72
2023/11/06 09:01:25;;;;;;;4.15;1.67;;;;;;;12.16;52.68;98705.19;10509010;28;20306;-72
2023/11/06 09:06:28;;;;;;;4.47;1.10;;;;;;;12.09;52.47;98711.91;10518566;28;20116;-71
2023/11/06 09:11:30;;;;;;;3.03;1.08;;;;;;;11.94;52.38;98719.31;10494616;28;20067;-71
2023/11/06 09:16:38;;;;;;;4.50;1.77;;;;;;;12.01;51.67;98730.91;10509065;28;20056;-72
2023/11/06 09:21:40;;;;;;;3.70;1.15;;;;;;;12.11;52.62;98737.03;10513443;28;20476;-72
2023/11/06 09:26:45;;;;;;;4.78;1.73;;;;;;;11.87;52.61;98730.41;10515025;28;20365;-71
2023/11/06 09:31:47;;;;;;;5.88;2.00;;;;;;;11.75;52.93;98749.78;10502129;28;20047;-71
2023/11/06 09:36:49;;;;;;;11.18;3.00;;;;;;;11.59;53.19;98744.16;10509235;28;20419;-71
2023/11/06 09:41:54;;;;;;;4.03;1.63;;;;;;;11.41;53.57;98750.91;10512479;28;20123;-71
2023/11/06 09:46:56;;;;;;;3.63;1.60;;;;;;;11.59;53.41;98765.94;10491319;28;20743;-71
2023/11/06 09:52:03;;;;;;;3.88;1.08;;;;;;;11.77;53.20;98759.19;10512611;28;20039;-70
2023/11/06 09:57:05;;;;;;;5.43;1.75;;;;;;;11.86;53.04;98749.72;10510935;28;20641;-70
2023/11/06 10:02:08;;;;;;;3.40;1.30;;;;;;;12.02;52.95;98750.09;10509435;28;20048;-71
2023/11/06 10:07:10;;;;;;;4.30;1.30;;;;;;;12.01;52.67;98745.81;10509318;28;20048;-71
2023/11/06 10:12:14;;;;;;;4.05;2.38;;;;;;;12.07;52.00;98734.81;10505709;28;20631;-71
2023/11/06 10:17:18;;;;;;;4.22;1.63;;;;;;;12.12;52.00;98740.50;10506458;28;20490;-70
2023/11/06 10:22:20;;;;;;;4.63;1.52;;;;;;;12.08;51.96;98737.31;10507892;28;20051;-71
2023/11/06 10:27:24;;;;;;;3.08;1.33;;;;;;;12.11;52.09;98738.81;10504190;28;20398;-70
2023/11/06 10:32:29;;;;;;;12.45;1.55;;;;;;;12.74;51.19;98741.19;10502422;28;20050;-70
2023/11/06 10:37:44;;;;;;;2.33;1.23;;;;;;;13.19;49.09;98735.50;10507333;28;20043;-70
2023/11/06 10:42:51;;;;;;;5.88;1.67;;;;;;;13.47;49.49;98735.53;10488351;28;20076;-70
2023/11/06 10:47:53;;;;;;;1.75;1.20;;;;;;;13.29;49.45;98741.59;10485935;28;20044;-71
2023/11/06 10:52:59;;;;;;;3.97;1.95;;;;;;;13.20;49.63;98732.72;10505018;28;20051;-70
2023/11/06 10:58:03;;;;;;;4.30;1.85;;;;;;;13.36;49.09;98727.75;10488695;28;20798;-70
2023/11/06 11:03:07;;;;;;;2.75;1.00;;;;;;;13.29;49.07;98725.81;10503746;28;20044;-70
2023/11/06 11:08:10;;;;;;;2.15;0.93;;;;;;;13.33;48.60;98728.00;10511562;28;20361;-71
2023/11/06 11:13:15;;;;;;;7.85;1.60;;;;;;;13.56;48.17;98712.84;10491299;28;20146;-71
2023/11/06 11:18:28;;;;;;;2.47;0.80;;;;;;;13.70;45.40;98713.25;10507395;28;20040;-71
2023/11/06 11:23:35;;;;;;;3.40;1.45;;;;;;;13.42;47.26;98711.47;10526715;28;20063;-70
2023/11/06 11:28:57;;;;;;;5.30;1.10;;;;;;;13.33;46.32;98701.75;10481531;28;20036;-71
2023/11/06 11:34:00;;;;;;;2.38;1.38;;;;;;;13.58;47.12;98711.75;10481206;28;20047;-70
2023/11/06 11:39:14;;;;;;;2.13;0.95;;;;;;;13.36;47.33;98701.50;10477099;28;20517;-71
2023/11/06 11:44:18;;;;;;;4.90;1.63;;;;;;;13.42;47.59;98705.34;10483947;28;20044;-70
2023/11/06 11:49:43;;;;;;;4.00;1.67;;;;;;;13.43;46.20;98707.06;10503147;28;20055;-71
2023/11/06 11:54:46;;;;;;;3.25;1.15;;;;;;;13.22;47.67;98719.44;10510201;28;20047;-71
2023/11/06 11:59:52;;;;;;;4.78;1.88;;;;;;;13.25;46.33;98712.13;10507627;28;20450;-71
2023/11/06 12:04:57;;;;;;;3.55;1.63;;;;;;;13.38;47.10;98720.56;10506958;28;20695;-70
2023/11/06 12:10:01;;;;;;;5.47;1.75;;;;;;;13.24;47.46;98718.34;10513750;28;20048;-71
2023/11/06 12:15:10;;;;;;;2.38;0.80;;;;;;;13.33;47.07;98719.34;10513583;28;20068;-70
2023/11/06 12:20:13;;;;;;;3.85;0.73;;;;;;;13.25;47.76;98714.75;10513008;28;20090;-70
2023/11/06 12:25:34;;;;;;;4.10;0.95;;;;;;;13.27;47.22;98718.06;10492675;28;20056;-70
2023/11/06 12:30:37;;;;;;;1.17;0.70;;;;;;;13.50;48.02;98722.13;10508580;28;20070;-71
2023/11/06 12:35:41;;;;;;;4.45;1.02;;;;;;;13.46;48.49;98717.28;10482760;28;20056;-71
2023/11/06 12:40:46;;;;;;;3.15;0.75;;;;;;;13.50;48.80;98718.66;10533028;28;20097;-71
2023/11/06 12:45:54;;;;;;;2.80;1.25;;;;;;;13.38;49.04;98719.72;10499874;28;20066;-71
2023/11/06 12:51:06;;;;;;;3.75;0.77;;;;;;;13.07;50.86;98723.47;10513301;28;20090;-71
2023/11/06 12:56:10;;;;;;;4.22;0.80;;;;;;;12.58;52.29;98733.00;10513150;28;20138;-71
2023/11/06 13:01:22;;;;;;;4.53;0.88;;;;;;;12.19;53.91;98739.03;10511207;28;20539;-72
2023/11/06 13:06:25;;;;;;;2.63;1.33;;;;;;;12.19;55.02;98738.19;10491718;28;20880;-71
2023/11/06 13:11:28;;;;;;;2.03;0.50;;;;;;;12.31;55.11;98740.63;10508335;28;20044;-71
2023/11/06 13:16:39;;;;;;;0.95;0.63;;;;;;;12.50;55.88;98738.06;10504885;28;20076;-71
2023/11/06 13:21:43;;;;;;;2.83;0.50;;;;;;;12.56;55.98;98747.19;10524698;27;20047;-72
2023/11/06 13:26:46;;;;;;;3.42;1.33;;;;;;;12.45;55.95;98742.06;10490742;28;20048;-72
2023/11/06 13:31:51;;;;;;;1.73;0.90;;;;;;;12.43;56.29;98739.59;10493659;28;20052;-72
2023/11/06 13:36:59;;;;;;;0.68;0.60;;;;;;;12.45;56.52;98737.66;10510453;28;20131;-72
2023/11/06 13:42:08;;;;;;;1.60;0.55;;;;;;;12.45;56.71;98735.03;10512125;28;20125;-72
2023/11/06 13:47:11;;;;;;;4.07;0.70;;;;;;;12.56;56.69;98736.72;10511601;28;20201;-72
2023/11/06 13:52:24;;;;;;;1.25;0.55;;;;;;;12.57;56.58;98738.38;10505820;28;21053;-72
2023/11/06 13:57:26;;;;;;;0.95;0.50;;;;;;;12.49;56.55;98739.06;10512059;28;20139;-69
2023/11/06 14:02:29;;;;;;;1.90;0.68;;;;;;;12.44;56.69;98746.47;10510659;28;20553;-72
2023/11/06 14:07:31;;;;;;;1.20;0.40;;;;;;;12.39;56.69;98751.28;10512244;28;20051;-71
2023/11/06 14:12:33;;;;;;;3.28;1.10;;;;;;;12.42;57.18;98745.78;10514745;28;20394;-71
2023/11/06 14:17:35;;;;;;;4.18;0.82;;;;;;;12.28;57.38;98746.13;10514487;28;20044;-71
2023/11/06 14:22:37;;;;;;;1.85;0.85;;;;;;;12.14;57.53;98764.78;10510068;28;20083;-72
2023/11/06 14:27:40;;;;;;;2.00;0.47;;;;;;;11.98;58.38;98765.25;10513981;28;20083;-69
2023/11/06 14:32:42;;;;;;;2.00;0.50;;;;;;;11.84;59.11;98768.19;10518740;28;20127;-69
2023/11/06 14:37:52;;;;;;;1.00;0.52;;;;;;;11.89;59.52;98760.78;10516316;28;20050;-70
2023/11/06 14:42:56;;;;;;;2.20;1.42;;;;;;;11.92;59.85;98759.69;10517597;28;20040;-69
2023/11/06 14:47:59;;;;;;;0.52;0.50;;;;;;;11.84;60.07;98770.81;10516003;28;20064;-70
2023/11/06 14:53:03;;;;;;;1.38;0.60;;;;;;;11.73;60.24;98776.09;10516067;28;20453;-69
2023/11/06 14:58:05;;;;;;;0.65;0.50;;;;;;;11.72;60.46;98776.25;10516061;28;20044;-68
2023/11/06 15:03:07;;;;;;;3.97;1.00;;;;;;;11.60;60.74;98799.00;10498843;28;20043;-70
2023/11/06 15:08:09;;;;;;;1.42;0.73;;;;;;;11.56;61.04;98804.63;10512577;28;20058;-72
2023/11/06 15:13:12;;;;;;;0.57;0.57;;;;;;;11.62;61.23;98794.47;10508242;28;20432;-70
2023/11/06 15:18:15;;;;;;;0.50;0.50;;;;;;;11.66;60.79;98798.50;10495202;28;20157;-70
2023/11/06 15:23:17;;;;;;;0.68;0.50;;;;;;;11.65;60.99;98790.78;10510832;28;20082;-70
2023/11/06 15:28:20;;;;;;;0.57;0.52;;;;;;;11.39;61.07;98794.69;10523323;28;20129;-70
2023/11/06 15:33:22;;;;;;;3.40;1.70;;;;;;;11.17;61.57;98791.19;10516636;28;20036;-71
2023/11/06 15:38:24;;;;;;;0.90;0.63;;;;;;;11.00;61.90;98810.00;10521794;28;20101;-70
2023/11/06 15:43:26;;;;;;;2.55;1.33;;;;;;;10.97;62.18;98801.56;10502532;28;20540;-71
2023/11/06 15:48:34;;;;;;;3.03;1.15;;;;;;;10.98;62.03;98809.28;10517444;28;20192;-70
2023/11/06 15:53:36;;;;;;;2.55;0.90;;;;;;;10.93;62.14;98808.00;10500802;28;20089;-71
2023/11/06 15:58:40;;;;;;;0.47;0.47;;;;;;;10.87;62.24;98811.06;10508650;28;20056;-71
2023/11/06 16:03:42;;;;;;;1.45;0.98;;;;;;;10.59;62.29;98820.22;10513009;28;20493;-70
2023/11/06 16:08:44;;;;;;;0.77;0.65;;;;;;;10.10;63.80;98827.53;10519174;28;20055;-70
2023/11/06 16:13:48;;;;;;;0.93;0.60;;;;;;;9.95;63.83;98841.75;10486779;28;20051;-70
2023/11/06 16:18:51;;;;;;;5.57;1.13;;;;;;;9.99;63.77;98851.81;10504518;28;20051;-70
2023/11/06 16:23:53;;;;;;;0.68;0.68;;;;;;;10.01;63.65;98854.34;10503085;28;20055;-70
2023/11/06 16:28:55;;;;;;;1.55;1.10;;;;;;;10.01;63.52;98859.56;10520067;28;20527;-70
2023/11/06 16:33:57;;;;;;;1.20;0.77;;;;;;;9.92;63.44;98850.63;10520481;28;20324;-70
2023/11/06 16:39:00;;;;;;;3.78;1.75;;;;;;;9.81;63.56;98868.06;10500172;28;20050;-70
2023/11/06 16:44:04;;;;;;;4.15;1.83;;;;;;;9.71;63.68;98870.47;10501603;28;20048;-70
2023/11/06 16:49:06;;;;;;;2.08;1.08;;;;;;;9.67;63.73;98873.44;10497931;28;20135;-70
2023/11/06 16:54:08;;;;;;;0.88;0.80;;;;;;;9.58;63.78;98893.19;10518209;28;20052;-70
2023/11/06 16:59:11;;;;;;;2.67;0.73;;;;;;;9.50;63.70;98895.50;10519893;28;20055;-70
2023/11/06 17:04:14;;;;;;;2.28;1.30;;;;;;;9.42;63.88;98908.28;10519386;28;20112;-69
2023/11/06 17:09:17;;;;;;;5.45;1.30;;;;;;;9.35;63.98;98909.63;10518816;28;20131;-70
2023/11/06 17:14:19;;;;;;;1.60;1.00;;;;;;;9.19;64.18;98917.72;10518147;28;20058;-70
2023/11/06 17:19:21;;;;;;;5.70;2.53;;;;;;;9.05;64.40;98919.63;10518425;28;20347;-70
2023/11/06 17:24:23;;;;;;;3.00;1.67;;;;;;;8.99;64.68;98926.09;10517666;28;20063;-63
2023/11/06 17:29:26;;;;;;;2.03;1.20;;;;;;;8.92;64.54;98935.28;10511716;28;20051;-62
2023/11/06 17:34:28;;;;;;;1.95;1.08;;;;;;;8.83;64.80;98941.13;10483437;28;20039;-63
2023/11/06 17:39:30;;;;;;;3.35;1.13;;;;;;;8.85;64.50;98944.47;10489159;28;20039;-62
2023/11/06 17:44:33;;;;;;;1.00;0.82;;;;;;;8.78;64.69;98962.28;10509691;28;20730;-63
2023/11/06 17:49:35;;;;;;;2.13;0.98;;;;;;;8.76;64.69;98965.94;10508722;28;20509;-62
2023/11/06 17:54:37;;;;;;;1.20;0.88;;;;;;;8.73;64.85;98971.34;10493591;28;20052;-63
2023/11/06 17:59:42;;;;;;;0.93;0.85;;;;;;;8.58;64.95;98983.66;10496360;28;20760;-63
2023/11/06 18:04:44;;;;;;;1.50;1.15;;;;;;;8.48;64.76;98992.16;10506841;28;20044;-62
2023/11/06 18:09:47;;;;;;;1.33;0.90;;;;;;;8.43;64.94;98991.63;10511121;28;20050;-63
2023/11/06 18:14:49;;;;;;;2.88;1.10;;;;;;;8.46;65.06;98999.25;10509155;28;20101;-63
2023/11/06 18:19:51;;;;;;;2.78;1.05;;;;;;;8.44;65.17;99011.56;10508815;28;20055;-61
2023/11/06 18:24:53;;;;;;;5.20;2.25;;;;;;;8.38;65.49;99020.59;10504143;28;20063;-62
2023/11/06 18:29:56;;;;;;;5.53;2.70;;;;;;;8.37;65.42;99029.34;10491336;28;20051;-61
2023/11/06 18:35:01;;;;;;;6.03;1.88;;;;;;;8.29;65.61;99029.00;10512929;28;20044;-61
2023/11/06 18:40:08;;;;;;;3.03;1.40;;;;;;;8.30;65.62;99035.06;10496240;28;20519;-61
2023/11/06 18:45:11;;;;;;;2.42;1.10;;;;;;;8.26;65.60;99038.81;10512195;28;20504;-61
2023/11/06 18:50:13;;;;;;;0.85;0.80;;;;;;;8.30;65.93;99041.13;10514192;28;20056;-62
2023/11/06 18:55:18;;;;;;;1.63;0.90;;;;;;;8.46;65.74;99043.56;10494616;28;20093;-61
2023/11/06 19:00:20;;;;;;;1.88;1.10;;;;;;;8.50;65.73;99042.41;10513541;28;20055;-61
2023/11/06 19:05:23;;;;;;;2.00;0.90;;;;;;;8.54;65.74;99054.31;10512991;28;20575;-62
2023/11/06 19:10:25;;;;;;;0.77;0.70;;;;;;;8.62;65.49;99052.88;10512171;28;20040;-62
2023/11/06 19:15:27;;;;;;;1.30;0.90;;;;;;;8.69;65.37;99064.56;10492631;28;20044;-62
2023/11/06 19:20:29;;;;;;;4.45;1.40;;;;;;;8.83;65.15;99074.91;10486870;28;20182;-62
2023/11/06 19:25:31;;;;;;;1.45;1.00;;;;;;;9.05;65.06;99076.09;10511273;28;21530;-62
2023/11/06 19:30:34;;;;;;;3.00;1.20;;;;;;;9.17;64.74;99081.34;10510909;28;20055;-62
2023/11/06 19:35:37;;;;;;;1.60;0.63;;;;;;;9.34;64.33;99090.63;10510227;28;20113;-62
2023/11/06 19:40:39;;;;;;;0.98;0.80;;;;;;;9.39;64.46;99096.34;10511652;28;20488;-62
2023/11/06 19:45:42;;;;;;;2.40;0.80;;;;;;;9.42;64.16;99102.19;10507750;28;20110;-62
2023/11/06 19:50:44;;;;;;;1.17;0.80;;;;;;;9.49;63.84;99110.44;10512203;28;20480;-62
2023/11/06 19:55:47;;;;;;;0.50;0.50;;;;;;;9.57;63.83;99105.53;10506904;28;20480;-62
2023/11/06 20:00:49;;;;;;;1.67;1.17;;;;;;;9.61;63.66;99115.69;10509463;28;20044;-62
2023/11/06 20:05:52;;;;;;;2.30;1.17;;;;;;;9.56;63.63;99114.31;10516276;28;20334;-62
2023/11/06 20:10:54;;;;;;;8.25;1.42;;;;;;;9.49;63.33;99116.50;10518250;28;20042;-63
2023/11/06 20:15:57;;;;;;;1.58;1.08;;;;;;;9.57;63.64;99121.19;10516452;28;20055;-62
2023/11/06 20:21:00;;;;;;;2.42;1.40;;;;;;;9.59;63.53;99114.09;10519084;28;20299;-64
2023/11/06 20:26:02;;;;;;;2.70;1.13;;;;;;;9.63;63.12;99124.22;10516283;28;20057;-63
2023/11/06 20:31:04;;;;;;;2.17;1.40;;;;;;;9.59;63.45;99128.00;10517503;28;20054;-63
2023/11/06 20:36:07;;;;;;;3.13;1.30;;;;;;;9.62;63.43;99129.56;10516148;28;20055;-63
2023/11/06 20:41:12;;;;;;;1.85;1.20;;;;;;;9.69;63.31;99135.25;10515795;28;20055;-64
2023/11/06 20:46:14;;;;;;;2.03;1.30;;;;;;;9.71;63.31;99142.00;10515875;28;20569;-61
2023/11/06 20:51:16;;;;;;;1.50;0.80;;;;;;;9.61;63.36;99139.16;10516759;28;20408;-63
2023/11/06 20:56:18;;;;;;;1.52;0.88;;;;;;;9.46;63.42;99150.63;10515770;28;20483;-63
2023/11/06 21:01:20;;;;;;;0.50;0.50;;;;;;;9.34;63.57;99148.84;10517448;28;20400;-63
2023/11/06 21:06:23;;;;;;;2.42;0.80;;;;;;;9.23;63.74;99151.38;10512696;28;20059;-63
2023/11/06 21:11:25;;;;;;;2.13;1.20;;;;;;;9.14;63.98;99159.78;10496290;28;20040;-63
2023/11/06 21:16:32;;;;;;;1.00;0.77;;;;;;;9.08;64.24;99175.00;10528451;27;20093;-63
2023/11/06 21:21:35;;;;;;;1.80;0.80;;;;;;;9.24;64.14;99175.69;10515853;28;20434;-64
2023/11/06 21:26:37;;;;;;;1.38;0.80;;;;;;;9.37;63.82;99176.53;10514386;28;20113;-64
2023/11/06 21:31:40;;;;;;;1.75;1.00;;;;;;;9.27;63.87;99181.53;10512474;28;20135;-64
2023/11/06 21:36:43;;;;;;;0.90;0.82;;;;;;;9.27;63.72;99176.31;10515464;28;20050;-63
2023/11/06 21:41:45;;;;;;;0.60;0.60;;;;;;;9.35;63.74;99187.06;10494519;28;20130;-64
2023/11/06 21:46:48;;;;;;;3.22;1.45;;;;;;;9.40;63.46;99192.00;10493066;28;20060;-61
2023/11/06 21:51:50;;;;;;;3.92;1.20;;;;;;;9.51;63.50;99184.25;10511197;28;20374;-63
2023/11/06 21:56:52;;;;;;;3.08;1.58;;;;;;;9.45;63.24;99195.13;10507774;28;20241;-63
2023/11/06 22:01:55;;;;;;;1.98;0.75;;;;;;;9.35;63.56;99202.72;10510925;28;20518;-63
2023/11/06 22:06:57;;;;;;;0.60;0.43;;;;;;;9.40;63.66;99208.47;10529516;27;20032;-62
2023/11/06 22:11:59;;;;;;;2.05;0.80;;;;;;;9.45;63.83;99206.41;10514115;28;20462;-62
2023/11/06 22:17:01;;;;;;;1.70;0.80;;;;;;;9.49;63.85;99191.38;10492748;28;20083;-62
2023/11/06 22:22:04;;;;;;;2.13;1.02;;;;;;;9.50;63.77;99204.31;10511718;28;20169;-62
2023/11/06 22:27:06;;;;;;;1.85;0.93;;;;;;;9.54;63.72;99205.78;10511925;28;20051;-62
2023/11/06 22:32:08;;;;;;;1.27;0.47;;;;;;;9.60;63.57;99215.84;10512962;28;20063;-62
2023/11/06 22:37:11;;;;;;;1.85;0.55;;;;;;;9.59;63.50;99216.75;10513209;28;20044;-62
2023/11/06 22:42:13;;;;;;;1.80;0.35;;;;;;;9.75;63.20;99234.84;10510049;28;20587;-62
2023/11/06 22:47:15;;;;;;;0.95;0.80;;;;;;;9.83;63.06;99236.97;10513616;28;20062;-62
2023/11/06 22:52:17;;;;;;;1.17;0.85;;;;;;;9.87;62.90;99230.59;10511112;28;20052;-62
2023/11/06 22:57:19;;;;;;;0.60;0.60;;;;;;;9.91;62.97;99234.69;10512539;28;20480;-62
2023/11/06 23:02:21;;;;;;;1.08;0.73;;;;;;;9.89;62.75;99232.16;10509318;28;20557;-62
2023/11/06 23:07:23;;;;;;;1.55;0.70;;;;;;;9.88;62.89;99237.47;10511812;28;20044;-62
2023/11/06 23:12:26;;;;;;;0.50;0.50;;;;;;;9.92;62.79;99237.19;10511935;28;20477;-62
2023/11/06 23:17:28;;;;;;;2.38;0.80;;;;;;;9.94;62.83;99237.91;10512201;28;20257;-62
2023/11/06 23:22:30;;;;;;;1.15;0.70;;;;;;;10.00;62.60;99239.25;10510839;28;20498;-63
2023/11/06 23:27:33;;;;;;;0.93;0.77;;;;;;;9.86;62.62;99255.03;10511932;28;20568;-62
2023/11/06 23:32:36;;;;;;;2.67;1.02;;;;;;;9.87;62.54;99243.66;10511453;28;20378;-62
2023/11/06 23:37:38;;;;;;;0.77;0.73;;;;;;;9.84;62.60;99244.69;10513587;28;20473;-63